sensor_id;sensor_type;location;lat;lon;timestamp;temperature;humidity
76857;DHT22;69705;44.686;37.628;2023-06-14T00:00:07;20.34;90.73
76857;DHT22;69705;44.686;37.628;2023-06-14T00:02:35;20.33;90.83
76857;DHT22;69705;44.686;37.628;2023-06-14T00:05:03;20.34;90.33
76857;DHT22;69705;44.686;37.628;2023-06-14T00:07:40;20.37;90.31
76857;DHT22;69705;44.686;37.628;2023-06-14T00:10:11;20.40;90.52
76857;DHT22;69705;44.686;37.628;2023-06-14T00:12:38;20.35;90.61
76857;DHT22;69705;44.686;37.628;2023-06-14T00:15:10;20.37;90.44
76857;DHT22;69705;44.686;37.628;2023-06-14T00:17:37;20.35;90.49
76857;DHT22;69705;44.686;37.628;2023-06-14T00:20:05;20.30;90.45
76857;DHT22;69705;44.686;37.628;2023-06-14T00:22:33;20.31;90.39
76857;DHT22;69705;44.686;37.628;2023-06-14T00:25:00;20.33;90.31
76857;DHT22;69705;44.686;37.628;2023-06-14T00:27:32;20.33;90.44
76857;DHT22;69705;44.686;37.628;2023-06-14T00:29:59;20.30;90.23
76857;DHT22;69705;44.686;37.628;2023-06-14T00:32:26;20.31;90.22
76857;DHT22;69705;44.686;37.628;2023-06-14T00:34:56;20.27;90.19
76857;DHT22;69705;44.686;37.628;2023-06-14T00:37:23;20.26;89.92
76857;DHT22;69705;44.686;37.628;2023-06-14T00:39:49;20.19;90.20
76857;DHT22;69705;44.686;37.628;2023-06-14T00:42:25;20.15;90.32
76857;DHT22;69705;44.686;37.628;2023-06-14T00:44:53;20.13;90.81
76857;DHT22;69705;44.686;37.628;2023-06-14T00:47:20;20.12;90.71
76857;DHT22;69705;44.686;37.628;2023-06-14T00:49:48;20.06;90.40
76857;DHT22;69705;44.686;37.628;2023-06-14T00:52:15;20.09;90.33
76857;DHT22;69705;44.686;37.628;2023-06-14T00:54:43;20.06;90.02
76857;DHT22;69705;44.686;37.628;2023-06-14T00:57:15;20.03;90.05
76857;DHT22;69705;44.686;37.628;2023-06-14T00:59:44;20.03;89.92
76857;DHT22;69705;44.686;37.628;2023-06-14T01:02:12;20.01;89.85
76857;DHT22;69705;44.686;37.628;2023-06-14T01:04:43;20.00;89.66
76857;DHT22;69705;44.686;37.628;2023-06-14T01:12:44;19.94;91.27
76857;DHT22;69705;44.686;37.628;2023-06-14T01:15:14;19.98;91.06
76857;DHT22;69705;44.686;37.628;2023-06-14T01:17:42;19.98;91.20
76857;DHT22;69705;44.686;37.628;2023-06-14T01:20:12;19.98;91.53
76857;DHT22;69705;44.686;37.628;2023-06-14T01:22:59;20.01;91.34
76857;DHT22;69705;44.686;37.628;2023-06-14T01:25:27;20.01;91.15
76857;DHT22;69705;44.686;37.628;2023-06-14T01:27:58;19.98;91.20
76857;DHT22;69705;44.686;37.628;2023-06-14T01:30:26;20.00;91.18
76857;DHT22;69705;44.686;37.628;2023-06-14T01:32:55;20.01;91.22
76857;DHT22;69705;44.686;37.628;2023-06-14T01:35:23;19.97;91.55
76857;DHT22;69705;44.686;37.628;2023-06-14T01:37:50;19.95;91.59
76857;DHT22;69705;44.686;37.628;2023-06-14T01:40:19;19.99;91.14
76857;DHT22;69705;44.686;37.628;2023-06-14T01:42:48;19.95;91.54
76857;DHT22;69705;44.686;37.628;2023-06-14T01:45:15;19.91;91.37
76857;DHT22;69705;44.686;37.628;2023-06-14T01:47:44;19.95;90.89
76857;DHT22;69705;44.686;37.628;2023-06-14T01:50:12;19.91;90.84
76857;DHT22;69705;44.686;37.628;2023-06-14T01:52:39;19.90;90.91
76857;DHT22;69705;44.686;37.628;2023-06-14T01:55:06;19.94;91.21
76857;DHT22;69705;44.686;37.628;2023-06-14T01:57:34;19.98;91.41
76857;DHT22;69705;44.686;37.628;2023-06-14T02:00:01;20.01;91.33
76857;DHT22;69705;44.686;37.628;2023-06-14T02:02:39;20.02;91.31
76857;DHT22;69705;44.686;37.628;2023-06-14T02:05:06;20.04;91.37
76857;DHT22;69705;44.686;37.628;2023-06-14T02:07:34;20.05;91.37
76857;DHT22;69705;44.686;37.628;2023-06-14T02:10:01;20.06;91.25
76857;DHT22;69705;44.686;37.628;2023-06-14T02:12:28;20.04;91.02
76857;DHT22;69705;44.686;37.628;2023-06-14T02:14:58;20.02;91.05
76857;DHT22;69705;44.686;37.628;2023-06-14T02:17:25;19.95;91.14
76857;DHT22;69705;44.686;37.628;2023-06-14T02:19:51;19.91;91.03
76857;DHT22;69705;44.686;37.628;2023-06-14T02:22:19;19.86;91.19
76857;DHT22;69705;44.686;37.628;2023-06-14T02:24:53;19.87;91.21
76857;DHT22;69705;44.686;37.628;2023-06-14T02:27:20;19.89;91.47
76857;DHT22;69705;44.686;37.628;2023-06-14T02:29:47;19.89;91.46
76857;DHT22;69705;44.686;37.628;2023-06-14T02:32:14;19.90;91.21
76857;DHT22;69705;44.686;37.628;2023-06-14T02:34:40;19.96;91.40
76857;DHT22;69705;44.686;37.628;2023-06-14T02:37:13;19.99;91.15
76857;DHT22;69705;44.686;37.628;2023-06-14T02:39:39;20.01;91.27
76857;DHT22;69705;44.686;37.628;2023-06-14T02:42:07;20.03;91.40
76857;DHT22;69705;44.686;37.628;2023-06-14T02:44:33;20.02;91.46
76857;DHT22;69705;44.686;37.628;2023-06-14T02:47:01;20.03;91.78
76857;DHT22;69705;44.686;37.628;2023-06-14T02:49:28;20.09;91.41
76857;DHT22;69705;44.686;37.628;2023-06-14T02:51:56;20.14;91.17
76857;DHT22;69705;44.686;37.628;2023-06-14T02:54:28;20.21;91.21
76857;DHT22;69705;44.686;37.628;2023-06-14T02:56:55;20.22;91.25
76857;DHT22;69705;44.686;37.628;2023-06-14T02:59:22;20.22;90.97
76857;DHT22;69705;44.686;37.628;2023-06-14T03:01:54;20.25;90.82
76857;DHT22;69705;44.686;37.628;2023-06-14T03:04:21;20.31;90.62
76857;DHT22;69705;44.686;37.628;2023-06-14T03:06:48;20.35;90.69
76857;DHT22;69705;44.686;37.628;2023-06-14T03:09:20;20.41;90.84
76857;DHT22;69705;44.686;37.628;2023-06-14T03:11:47;20.48;90.57
76857;DHT22;69705;44.686;37.628;2023-06-14T03:14:14;20.56;90.86
76857;DHT22;69705;44.686;37.628;2023-06-14T03:16:43;20.63;90.17
76857;DHT22;69705;44.686;37.628;2023-06-14T03:19:12;20.70;90.63
76857;DHT22;69705;44.686;37.628;2023-06-14T03:21:39;20.76;90.53
76857;DHT22;69705;44.686;37.628;2023-06-14T03:24:11;20.81;90.26
76857;DHT22;69705;44.686;37.628;2023-06-14T03:26:38;20.87;90.02
76857;DHT22;69705;44.686;37.628;2023-06-14T03:29:05;20.94;89.75
76857;DHT22;69705;44.686;37.628;2023-06-14T03:31:34;21.00;89.96
76857;DHT22;69705;44.686;37.628;2023-06-14T03:34:03;21.00;90.61
76857;DHT22;69705;44.686;37.628;2023-06-14T03:36:30;21.04;90.47
76857;DHT22;69705;44.686;37.628;2023-06-14T03:39:00;21.10;90.08
76857;DHT22;69705;44.686;37.628;2023-06-14T03:41:27;21.14;90.10
76857;DHT22;69705;44.686;37.628;2023-06-14T03:43:54;21.17;90.48
76857;DHT22;69705;44.686;37.628;2023-06-14T03:46:21;21.17;90.27
76857;DHT22;69705;44.686;37.628;2023-06-14T03:48:48;21.20;90.27
76857;DHT22;69705;44.686;37.628;2023-06-14T03:51:15;21.22;90.24
76857;DHT22;69705;44.686;37.628;2023-06-14T03:53:42;21.28;90.12
76857;DHT22;69705;44.686;37.628;2023-06-14T03:56:08;21.30;90.20
76857;DHT22;69705;44.686;37.628;2023-06-14T03:58:41;21.32;90.63
76857;DHT22;69705;44.686;37.628;2023-06-14T04:01:08;21.33;90.40
76857;DHT22;69705;44.686;37.628;2023-06-14T04:03:35;21.36;90.09
76857;DHT22;69705;44.686;37.628;2023-06-14T04:06:03;21.42;90.11
76857;DHT22;69705;44.686;37.628;2023-06-14T04:08:31;21.49;90.35
76857;DHT22;69705;44.686;37.628;2023-06-14T04:10:59;21.52;89.73
76857;DHT22;69705;44.686;37.628;2023-06-14T04:13:26;21.62;89.35
76857;DHT22;69705;44.686;37.628;2023-06-14T04:15:53;21.68;89.25
76857;DHT22;69705;44.686;37.628;2023-06-14T04:18:25;21.76;89.02
76857;DHT22;69705;44.686;37.628;2023-06-14T04:20:52;21.83;89.00
76857;DHT22;69705;44.686;37.628;2023-06-14T04:23:19;21.89;88.95
76857;DHT22;69705;44.686;37.628;2023-06-14T04:25:54;21.94;88.98
76857;DHT22;69705;44.686;37.628;2023-06-14T04:28:22;22.01;89.08
76857;DHT22;69705;44.686;37.628;2023-06-14T04:30:52;22.09;89.18
76857;DHT22;69705;44.686;37.628;2023-06-14T04:33:20;22.19;88.67
76857;DHT22;69705;44.686;37.628;2023-06-14T04:35:46;22.31;88.00
76857;DHT22;69705;44.686;37.628;2023-06-14T04:38:15;22.37;87.55
76857;DHT22;69705;44.686;37.628;2023-06-14T04:40:42;22.47;87.60
76857;DHT22;69705;44.686;37.628;2023-06-14T04:43:12;22.56;87.51
76857;DHT22;69705;44.686;37.628;2023-06-14T04:45:40;22.61;87.89
76857;DHT22;69705;44.686;37.628;2023-06-14T04:48:08;22.67;88.28
76857;DHT22;69705;44.686;37.628;2023-06-14T04:50:35;22.75;87.89
76857;DHT22;69705;44.686;37.628;2023-06-14T04:53:02;22.84;87.67
76857;DHT22;69705;44.686;37.628;2023-06-14T04:55:30;22.95;87.74
76857;DHT22;69705;44.686;37.628;2023-06-14T04:57:57;23.10;87.82
76857;DHT22;69705;44.686;37.628;2023-06-14T05:00:24;23.22;87.35
76857;DHT22;69705;44.686;37.628;2023-06-14T05:02:51;23.32;86.99
76857;DHT22;69705;44.686;37.628;2023-06-14T05:05:20;23.40;86.88
76857;DHT22;69705;44.686;37.628;2023-06-14T05:07:46;23.30;85.78
76857;DHT22;69705;44.686;37.628;2023-06-14T05:10:13;23.22;85.66
76857;DHT22;69705;44.686;37.628;2023-06-14T05:12:41;23.16;85.91
76857;DHT22;69705;44.686;37.628;2023-06-14T05:15:11;23.13;86.34
76857;DHT22;69705;44.686;37.628;2023-06-14T05:17:39;23.13;86.51
76857;DHT22;69705;44.686;37.628;2023-06-14T05:20:07;23.08;86.57
76857;DHT22;69705;44.686;37.628;2023-06-14T05:22:36;23.01;86.24
76857;DHT22;69705;44.686;37.628;2023-06-14T05:25:03;23.02;86.31
76857;DHT22;69705;44.686;37.628;2023-06-14T05:27:31;23.00;86.12
76857;DHT22;69705;44.686;37.628;2023-06-14T05:29:57;22.95;86.51
76857;DHT22;69705;44.686;37.628;2023-06-14T05:32:25;22.99;87.09
76857;DHT22;69705;44.686;37.628;2023-06-14T05:34:52;23.01;87.88
76857;DHT22;69705;44.686;37.628;2023-06-14T05:37:18;23.08;86.86
76857;DHT22;69705;44.686;37.628;2023-06-14T05:39:45;23.13;86.74
76857;DHT22;69705;44.686;37.628;2023-06-14T05:42:12;23.24;85.54
76857;DHT22;69705;44.686;37.628;2023-06-14T05:44:39;23.28;85.38
76857;DHT22;69705;44.686;37.628;2023-06-14T05:47:06;23.29;84.51
76857;DHT22;69705;44.686;37.628;2023-06-14T05:49:33;23.35;86.04
76857;DHT22;69705;44.686;37.628;2023-06-14T05:51:59;23.37;84.69
76857;DHT22;69705;44.686;37.628;2023-06-14T05:54:26;23.36;85.03
76857;DHT22;69705;44.686;37.628;2023-06-14T05:56:54;23.32;84.77
76857;DHT22;69705;44.686;37.628;2023-06-14T05:59:20;23.30;85.18
76857;DHT22;69705;44.686;37.628;2023-06-14T06:01:47;23.25;84.52
76857;DHT22;69705;44.686;37.628;2023-06-14T06:04:15;23.16;84.17
76857;DHT22;69705;44.686;37.628;2023-06-14T06:06:41;23.18;84.79
76857;DHT22;69705;44.686;37.628;2023-06-14T06:09:08;23.20;84.74
76857;DHT22;69705;44.686;37.628;2023-06-14T06:11:35;23.16;83.51
76857;DHT22;69705;44.686;37.628;2023-06-14T06:14:02;23.18;83.43
76857;DHT22;69705;44.686;37.628;2023-06-14T06:16:29;23.27;83.86
76857;DHT22;69705;44.686;37.628;2023-06-14T06:18:56;23.32;82.23
76857;DHT22;69705;44.686;37.628;2023-06-14T06:21:23;23.34;82.86
76857;DHT22;69705;44.686;37.628;2023-06-14T06:23:50;23.35;82.71
76857;DHT22;69705;44.686;37.628;2023-06-14T06:26:17;23.36;83.85
76857;DHT22;69705;44.686;37.628;2023-06-14T06:28:43;23.32;82.75
76857;DHT22;69705;44.686;37.628;2023-06-14T06:31:10;23.35;83.14
76857;DHT22;69705;44.686;37.628;2023-06-14T06:33:37;23.30;81.27
76857;DHT22;69705;44.686;37.628;2023-06-14T06:36:06;23.36;83.41
76857;DHT22;69705;44.686;37.628;2023-06-14T06:38:33;23.57;82.81
76857;DHT22;69705;44.686;37.628;2023-06-14T06:40:59;23.74;82.42
76857;DHT22;69705;44.686;37.628;2023-06-14T06:43:27;23.80;80.27
76857;DHT22;69705;44.686;37.628;2023-06-14T06:45:57;23.88;79.51
76857;DHT22;69705;44.686;37.628;2023-06-14T06:48:23;23.95;79.65
76857;DHT22;69705;44.686;37.628;2023-06-14T06:50:50;24.04;80.97
76857;DHT22;69705;44.686;37.628;2023-06-14T06:53:18;24.02;78.72
76857;DHT22;69705;44.686;37.628;2023-06-14T06:55:45;24.04;79.84
76857;DHT22;69705;44.686;37.628;2023-06-14T06:58:13;24.03;78.00
76857;DHT22;69705;44.686;37.628;2023-06-14T07:00:40;24.06;78.97
76857;DHT22;69705;44.686;37.628;2023-06-14T07:03:07;24.08;78.33
76857;DHT22;69705;44.686;37.628;2023-06-14T07:05:34;24.13;78.96
76857;DHT22;69705;44.686;37.628;2023-06-14T07:08:01;24.31;79.47
76857;DHT22;69705;44.686;37.628;2023-06-14T07:10:28;24.40;77.18
76857;DHT22;69705;44.686;37.628;2023-06-14T07:12:55;24.49;77.51
76857;DHT22;69705;44.686;37.628;2023-06-14T07:15:22;24.56;77.47
76857;DHT22;69705;44.686;37.628;2023-06-14T07:17:49;24.64;75.56
76857;DHT22;69705;44.686;37.628;2023-06-14T07:20:17;24.64;75.84
76857;DHT22;69705;44.686;37.628;2023-06-14T07:22:44;24.69;76.80
76857;DHT22;69705;44.686;37.628;2023-06-14T07:25:12;24.76;77.63
76857;DHT22;69705;44.686;37.628;2023-06-14T07:27:42;24.86;75.72
76857;DHT22;69705;44.686;37.628;2023-06-14T07:30:10;24.84;74.31
76857;DHT22;69705;44.686;37.628;2023-06-14T07:32:37;24.78;74.25
76857;DHT22;69705;44.686;37.628;2023-06-14T07:35:04;24.72;74.73
76857;DHT22;69705;44.686;37.628;2023-06-14T07:37:31;24.74;74.11
76857;DHT22;69705;44.686;37.628;2023-06-14T07:39:58;24.87;73.90
76857;DHT22;69705;44.686;37.628;2023-06-14T07:42:25;24.97;75.70
76857;DHT22;69705;44.686;37.628;2023-06-14T07:44:52;25.10;74.35
76857;DHT22;69705;44.686;37.628;2023-06-14T07:47:20;25.29;73.88
76857;DHT22;69705;44.686;37.628;2023-06-14T07:49:47;25.33;73.96
76857;DHT22;69705;44.686;37.628;2023-06-14T07:52:14;25.34;72.81
76857;DHT22;69705;44.686;37.628;2023-06-14T07:54:41;25.29;73.73
76857;DHT22;69705;44.686;37.628;2023-06-14T07:57:08;25.36;72.83
76857;DHT22;69705;44.686;37.628;2023-06-14T07:59:35;25.53;73.05
76857;DHT22;69705;44.686;37.628;2023-06-14T08:02:02;25.71;73.80
76857;DHT22;69705;44.686;37.628;2023-06-14T08:04:29;25.78;72.13
76857;DHT22;69705;44.686;37.628;2023-06-14T08:06:56;25.88;71.68
76857;DHT22;69705;44.686;37.628;2023-06-14T08:09:23;25.91;70.59
76857;DHT22;69705;44.686;37.628;2023-06-14T08:11:51;25.93;70.81
76857;DHT22;69705;44.686;37.628;2023-06-14T08:14:18;25.89;72.11
76857;DHT22;69705;44.686;37.628;2023-06-14T08:16:45;25.99;69.67
76857;DHT22;69705;44.686;37.628;2023-06-14T08:19:11;26.19;71.32
76857;DHT22;69705;44.686;37.628;2023-06-14T08:21:38;26.23;69.17
76857;DHT22;69705;44.686;37.628;2023-06-14T08:24:06;26.20;69.65
76857;DHT22;69705;44.686;37.628;2023-06-14T08:26:39;26.19;69.90
76857;DHT22;69705;44.686;37.628;2023-06-14T08:29:05;26.31;71.09
76857;DHT22;69705;44.686;37.628;2023-06-14T08:31:35;26.53;69.74
76857;DHT22;69705;44.686;37.628;2023-06-14T08:34:02;26.51;66.76
76857;DHT22;69705;44.686;37.628;2023-06-14T08:36:29;26.72;68.26
76857;DHT22;69705;44.686;37.628;2023-06-14T08:38:56;26.83;66.26
76857;DHT22;69705;44.686;37.628;2023-06-14T08:41:23;26.87;65.38
76857;DHT22;69705;44.686;37.628;2023-06-14T08:43:52;26.89;65.78
76857;DHT22;69705;44.686;37.628;2023-06-14T08:46:19;27.09;66.56
76857;DHT22;69705;44.686;37.628;2023-06-14T08:48:48;27.21;66.03
76857;DHT22;69705;44.686;37.628;2023-06-14T08:51:19;27.30;62.56
76857;DHT22;69705;44.686;37.628;2023-06-14T08:53:58;27.41;66.48
76857;DHT22;69705;44.686;37.628;2023-06-14T08:56:26;27.51;65.08
76857;DHT22;69705;44.686;37.628;2023-06-14T08:58:55;27.50;63.84
76857;DHT22;69705;44.686;37.628;2023-06-14T09:01:23;27.54;62.85
76857;DHT22;69705;44.686;37.628;2023-06-14T09:03:50;27.45;65.16
76857;DHT22;69705;44.686;37.628;2023-06-14T09:06:36;27.35;64.91
76857;DHT22;69705;44.686;37.628;2023-06-14T09:09:03;27.27;64.01
76857;DHT22;69705;44.686;37.628;2023-06-14T09:11:30;27.08;64.58
76857;DHT22;69705;44.686;37.628;2023-06-14T09:13:57;27.36;64.37
76857;DHT22;69705;44.686;37.628;2023-06-14T09:16:25;27.30;64.14
76857;DHT22;69705;44.686;37.628;2023-06-14T09:18:53;27.61;65.00
76857;DHT22;69705;44.686;37.628;2023-06-14T09:21:20;27.70;63.44
76857;DHT22;69705;44.686;37.628;2023-06-14T09:23:48;27.76;66.17
76857;DHT22;69705;44.686;37.628;2023-06-14T09:26:19;27.89;62.76
76857;DHT22;69705;44.686;37.628;2023-06-14T09:28:47;27.91;65.19
76857;DHT22;69705;44.686;37.628;2023-06-14T09:31:19;27.96;63.93
76857;DHT22;69705;44.686;37.628;2023-06-14T09:33:47;27.87;64.32
76857;DHT22;69705;44.686;37.628;2023-06-14T09:36:21;28.18;63.99
76857;DHT22;69705;44.686;37.628;2023-06-14T09:38:55;28.16;61.72
76857;DHT22;69705;44.686;37.628;2023-06-14T09:41:33;28.04;60.94
76857;DHT22;69705;44.686;37.628;2023-06-14T09:44:02;28.28;61.92
76857;DHT22;69705;44.686;37.628;2023-06-14T09:46:31;28.18;61.25
76857;DHT22;69705;44.686;37.628;2023-06-14T09:49:18;28.39;63.92
76857;DHT22;69705;44.686;37.628;2023-06-14T09:54:50;28.48;60.56
76857;DHT22;69705;44.686;37.628;2023-06-14T09:57:21;28.49;59.46
76857;DHT22;69705;44.686;37.628;2023-06-14T09:59:53;28.49;60.49
76857;DHT22;69705;44.686;37.628;2023-06-14T10:02:26;28.41;60.27
76857;DHT22;69705;44.686;37.628;2023-06-14T10:05:02;28.46;61.52
76857;DHT22;69705;44.686;37.628;2023-06-14T10:07:39;28.47;62.17
76857;DHT22;69705;44.686;37.628;2023-06-14T10:10:07;28.71;60.79
76857;DHT22;69705;44.686;37.628;2023-06-14T10:12:34;28.55;59.60
76857;DHT22;69705;44.686;37.628;2023-06-14T10:15:02;28.71;58.54
76857;DHT22;69705;44.686;37.628;2023-06-14T10:17:47;28.83;56.36
76857;DHT22;69705;44.686;37.628;2023-06-14T10:23:00;28.90;56.37
76857;DHT22;69705;44.686;37.628;2023-06-14T10:25:31;29.00;56.76
76857;DHT22;69705;44.686;37.628;2023-06-14T10:28:21;28.79;57.62
76857;DHT22;69705;44.686;37.628;2023-06-14T10:31:06;28.85;60.72
76857;DHT22;69705;44.686;37.628;2023-06-14T10:33:48;28.88;56.49
76857;DHT22;69705;44.686;37.628;2023-06-14T10:36:30;28.77;60.45
76857;DHT22;69705;44.686;37.628;2023-06-14T10:39:14;28.87;59.34
76857;DHT22;69705;44.686;37.628;2023-06-14T10:41:41;28.71;59.57
76857;DHT22;69705;44.686;37.628;2023-06-14T10:47:09;28.78;59.40
76857;DHT22;69705;44.686;37.628;2023-06-14T10:49:40;29.06;58.58
76857;DHT22;69705;44.686;37.628;2023-06-14T10:52:16;29.00;57.00
76857;DHT22;69705;44.686;37.628;2023-06-14T10:57:50;28.88;60.01
76857;DHT22;69705;44.686;37.628;2023-06-14T11:00:24;28.52;57.69
76857;DHT22;69705;44.686;37.628;2023-06-14T11:06:13;27.82;59.23
76857;DHT22;69705;44.686;37.628;2023-06-14T11:11:32;28.08;60.35
76857;DHT22;69705;44.686;37.628;2023-06-14T11:14:02;28.37;60.09
76857;DHT22;69705;44.686;37.628;2023-06-14T11:19:14;28.52;57.55
76857;DHT22;69705;44.686;37.628;2023-06-14T11:21:47;28.79;58.69
76857;DHT22;69705;44.686;37.628;2023-06-14T11:24:14;29.01;56.23
76857;DHT22;69705;44.686;37.628;2023-06-14T11:26:41;28.94;56.00
76857;DHT22;69705;44.686;37.628;2023-06-14T11:29:08;28.68;56.43
76857;DHT22;69705;44.686;37.628;2023-06-14T11:31:36;28.45;58.43
76857;DHT22;69705;44.686;37.628;2023-06-14T11:34:02;28.25;57.75
76857;DHT22;69705;44.686;37.628;2023-06-14T11:36:33;28.12;59.27
76857;DHT22;69705;44.686;37.628;2023-06-14T11:39:05;28.12;58.57
76857;DHT22;69705;44.686;37.628;2023-06-14T11:41:38;28.04;59.40
76857;DHT22;69705;44.686;37.628;2023-06-14T11:44:06;28.08;60.16
76857;DHT22;69705;44.686;37.628;2023-06-14T11:46:33;28.06;60.16
76857;DHT22;69705;44.686;37.628;2023-06-14T11:49:01;28.01;60.89
76857;DHT22;69705;44.686;37.628;2023-06-14T11:51:34;27.71;60.85
76857;DHT22;69705;44.686;37.628;2023-06-14T11:54:02;27.56;61.92
76857;DHT22;69705;44.686;37.628;2023-06-14T11:56:30;27.53;62.58
76857;DHT22;69705;44.686;37.628;2023-06-14T11:58:58;27.35;61.96
76857;DHT22;69705;44.686;37.628;2023-06-14T12:01:25;27.49;63.08
76857;DHT22;69705;44.686;37.628;2023-06-14T12:03:53;27.73;63.89
76857;DHT22;69705;44.686;37.628;2023-06-14T12:06:28;27.79;62.26
76857;DHT22;69705;44.686;37.628;2023-06-14T12:08:58;28.14;62.12
76857;DHT22;69705;44.686;37.628;2023-06-14T12:11:33;28.38;58.98
76857;DHT22;69705;44.686;37.628;2023-06-14T12:14:02;28.68;59.02
76857;DHT22;69705;44.686;37.628;2023-06-14T12:16:31;28.79;58.49
76857;DHT22;69705;44.686;37.628;2023-06-14T12:19:16;28.87;60.29
76857;DHT22;69705;44.686;37.628;2023-06-14T12:21:46;28.80;58.75
76857;DHT22;69705;44.686;37.628;2023-06-14T12:24:17;28.73;59.42
76857;DHT22;69705;44.686;37.628;2023-06-14T12:26:44;28.90;60.37
76857;DHT22;69705;44.686;37.628;2023-06-14T12:29:12;29.13;58.60
76857;DHT22;69705;44.686;37.628;2023-06-14T12:31:39;29.30;57.90
76857;DHT22;69705;44.686;37.628;2023-06-14T12:34:07;29.38;57.39
76857;DHT22;69705;44.686;37.628;2023-06-14T12:36:33;29.53;56.90
76857;DHT22;69705;44.686;37.628;2023-06-14T12:39:02;29.48;56.34
76857;DHT22;69705;44.686;37.628;2023-06-14T12:41:29;29.21;57.94
76857;DHT22;69705;44.686;37.628;2023-06-14T12:43:55;29.47;58.30
76857;DHT22;69705;44.686;37.628;2023-06-14T12:49:13;29.62;57.91
76857;DHT22;69705;44.686;37.628;2023-06-14T12:51:40;29.72;57.90
76857;DHT22;69705;44.686;37.628;2023-06-14T12:54:07;29.70;58.24
76857;DHT22;69705;44.686;37.628;2023-06-14T12:56:34;29.73;57.73
76857;DHT22;69705;44.686;37.628;2023-06-14T12:59:01;29.67;58.85
76857;DHT22;69705;44.686;37.628;2023-06-14T13:01:28;29.47;58.61
76857;DHT22;69705;44.686;37.628;2023-06-14T13:03:55;29.43;57.54
76857;DHT22;69705;44.686;37.628;2023-06-14T13:06:22;29.35;56.81
76857;DHT22;69705;44.686;37.628;2023-06-14T13:08:51;29.36;58.51
76857;DHT22;69705;44.686;37.628;2023-06-14T13:11:21;29.31;57.75
76857;DHT22;69705;44.686;37.628;2023-06-14T13:13:48;29.43;57.26
76857;DHT22;69705;44.686;37.628;2023-06-14T13:16:14;29.53;58.53
76857;DHT22;69705;44.686;37.628;2023-06-14T13:18:41;29.52;57.73
76857;DHT22;69705;44.686;37.628;2023-06-14T13:21:08;29.41;57.61
76857;DHT22;69705;44.686;37.628;2023-06-14T13:23:35;29.14;58.78
76857;DHT22;69705;44.686;37.628;2023-06-14T13:26:02;29.26;56.16
76857;DHT22;69705;44.686;37.628;2023-06-14T13:28:29;29.09;57.80
76857;DHT22;69705;44.686;37.628;2023-06-14T13:30:57;29.18;59.93
76857;DHT22;69705;44.686;37.628;2023-06-14T13:33:25;29.17;59.14
76857;DHT22;69705;44.686;37.628;2023-06-14T13:35:51;29.12;56.87
76857;DHT22;69705;44.686;37.628;2023-06-14T13:38:19;29.09;56.47
76857;DHT22;69705;44.686;37.628;2023-06-14T13:40:46;29.08;59.04
76857;DHT22;69705;44.686;37.628;2023-06-14T13:43:13;29.05;58.04
76857;DHT22;69705;44.686;37.628;2023-06-14T13:45:40;29.01;59.45
76857;DHT22;69705;44.686;37.628;2023-06-14T13:48:06;28.94;57.79
76857;DHT22;69705;44.686;37.628;2023-06-14T13:50:34;28.94;60.70
76857;DHT22;69705;44.686;37.628;2023-06-14T13:53:06;28.85;60.03
76857;DHT22;69705;44.686;37.628;2023-06-14T13:55:33;28.80;58.92
76857;DHT22;69705;44.686;37.628;2023-06-14T13:58:00;28.64;57.76
76857;DHT22;69705;44.686;37.628;2023-06-14T14:00:27;28.47;58.45
76857;DHT22;69705;44.686;37.628;2023-06-14T14:02:54;28.35;60.63
76857;DHT22;69705;44.686;37.628;2023-06-14T14:05:23;28.13;60.90
76857;DHT22;69705;44.686;37.628;2023-06-14T14:08:13;27.94;62.23
76857;DHT22;69705;44.686;37.628;2023-06-14T14:10:40;27.54;61.52
76857;DHT22;69705;44.686;37.628;2023-06-14T14:13:08;27.23;64.03
76857;DHT22;69705;44.686;37.628;2023-06-14T14:15:34;26.79;64.37
76857;DHT22;69705;44.686;37.628;2023-06-14T14:18:01;26.57;65.09
76857;DHT22;69705;44.686;37.628;2023-06-14T14:20:31;26.39;66.06
76857;DHT22;69705;44.686;37.628;2023-06-14T14:22:57;26.20;66.07
76857;DHT22;69705;44.686;37.628;2023-06-14T14:25:24;25.98;66.33
76857;DHT22;69705;44.686;37.628;2023-06-14T14:30:37;25.69;67.67
76857;DHT22;69705;44.686;37.628;2023-06-14T14:33:06;25.46;66.64
76857;DHT22;69705;44.686;37.628;2023-06-14T14:35:38;25.14;68.15
76857;DHT22;69705;44.686;37.628;2023-06-14T14:38:05;24.92;67.10
76857;DHT22;69705;44.686;37.628;2023-06-14T14:40:32;24.82;68.23
76857;DHT22;69705;44.686;37.628;2023-06-14T14:42:59;24.87;68.63
76857;DHT22;69705;44.686;37.628;2023-06-14T14:45:31;24.89;68.17
76857;DHT22;69705;44.686;37.628;2023-06-14T14:48:03;24.90;67.67
76857;DHT22;69705;44.686;37.628;2023-06-14T14:50:35;25.06;68.04
76857;DHT22;69705;44.686;37.628;2023-06-14T14:53:02;25.13;68.34
76857;DHT22;69705;44.686;37.628;2023-06-14T14:55:29;25.15;67.30
76857;DHT22;69705;44.686;37.628;2023-06-14T14:57:57;24.95;67.20
76857;DHT22;69705;44.686;37.628;2023-06-14T15:00:29;24.93;67.99
76857;DHT22;69705;44.686;37.628;2023-06-14T15:02:56;24.95;68.53
76857;DHT22;69705;44.686;37.628;2023-06-14T15:05:23;24.97;67.33
76857;DHT22;69705;44.686;37.628;2023-06-14T15:07:50;24.76;66.02
76857;DHT22;69705;44.686;37.628;2023-06-14T15:10:17;24.65;65.91
76857;DHT22;69705;44.686;37.628;2023-06-14T15:12:43;24.58;67.27
76857;DHT22;69705;44.686;37.628;2023-06-14T15:15:11;24.58;68.69
76857;DHT22;69705;44.686;37.628;2023-06-14T15:17:44;24.51;67.01
76857;DHT22;69705;44.686;37.628;2023-06-14T15:20:11;24.53;67.04
76857;DHT22;69705;44.686;37.628;2023-06-14T15:22:41;24.50;68.77
76857;DHT22;69705;44.686;37.628;2023-06-14T15:25:08;24.43;68.10
76857;DHT22;69705;44.686;37.628;2023-06-14T15:27:34;24.32;70.16
76857;DHT22;69705;44.686;37.628;2023-06-14T15:30:02;24.30;71.24
76857;DHT22;69705;44.686;37.628;2023-06-14T15:32:35;24.25;71.80
76857;DHT22;69705;44.686;37.628;2023-06-14T15:35:02;24.24;72.52
76857;DHT22;69705;44.686;37.628;2023-06-14T15:37:29;24.14;72.10
76857;DHT22;69705;44.686;37.628;2023-06-14T15:39:56;24.11;72.72
76857;DHT22;69705;44.686;37.628;2023-06-14T15:42:23;24.04;73.20
76857;DHT22;69705;44.686;37.628;2023-06-14T15:44:49;24.02;74.13
76857;DHT22;69705;44.686;37.628;2023-06-14T15:47:22;24.04;74.09
76857;DHT22;69705;44.686;37.628;2023-06-14T15:49:48;23.98;74.78
76857;DHT22;69705;44.686;37.628;2023-06-14T15:52:16;23.97;74.89
76857;DHT22;69705;44.686;37.628;2023-06-14T15:54:42;23.87;74.30